Schedule Details


Flight Number: CTN484
Departure: Franjo Tudman (LDZA) at 14:55
Arrival: Arlanda (ESSA) at 17:25
Route: OBUTI DCT DIMLO DCT ARSIN DCT ABLOM DCT MAVOR P10 HLV L156 SOPAV L617 REGLI T720 GRUDA N133 PENOR M607 ARMOD Z228 NILUG

Weather Information
LDZA 112330Z 26009KT 230V300 CAVOK 18/10 Q1007 NOSIG
ESSA 112320Z 08006KT CAVOK 10/06 Q1012 NOSIG
Schedule Frequency

Route Map